Time;durP1;ratioP1;P1;durP2;ratioP2;P2;SDS_P1;SDS_P2;PMS_P1;PMS_P2;Temp;Humidity;BMP_temperature;BMP_pressure;BME280_temperature;BME280_humidity;BME280_pressure;Samples;Min_cycle;Max_cycle;Signal;HPM_P1;HPM_P2
2023/07/13 00:01:43;;;;;;;5.03;3.40;;;18.50;99.90;;;;;;5019820;28;20037;-40
2023/07/13 00:04:09;;;;;;;4.10;3.67;;;18.60;99.90;;;;;;5019041;28;20044;-42
2023/07/13 00:06:35;;;;;;;5.65;3.90;;;18.60;99.90;;;;;;5024523;28;20036;-41
2023/07/13 00:09:01;;;;;;;4.45;3.33;;;18.60;99.90;;;;;;5019892;28;20561;-41
2023/07/13 00:11:27;;;;;;;5.20;3.70;;;18.60;99.90;;;;;;5022999;28;20048;-42
2023/07/13 00:13:53;;;;;;;3.55;3.25;;;18.70;99.90;;;;;;5024387;28;20155;-39
2023/07/13 00:16:19;;;;;;;4.03;3.60;;;18.70;99.90;;;;;;5018921;28;20056;-42
2023/07/13 00:18:45;;;;;;;4.32;3.72;;;18.80;99.90;;;;;;5025445;28;20026;-42
2023/07/13 00:21:11;;;;;;;5.45;3.70;;;18.70;99.90;;;;;;5021599;28;20548;-41
2023/07/13 00:23:40;;;;;;;5.07;3.83;;;18.70;99.90;;;;;;5020866;28;20021;-41
2023/07/13 00:26:08;;;;;;;5.68;3.53;;;18.70;99.90;;;;;;5019977;28;20018;-39
2023/07/13 00:28:34;;;;;;;4.93;3.72;;;18.80;99.90;;;;;;5020140;28;20108;-39
2023/07/13 00:31:01;;;;;;;4.82;3.75;;;18.80;99.90;;;;;;5019482;28;20128;-40
2023/07/13 00:33:28;;;;;;;5.00;3.63;;;18.80;99.90;;;;;;5018020;28;20026;-40
2023/07/13 00:35:55;;;;;;;3.93;3.47;;;18.80;99.90;;;;;;5016431;28;20383;-37
2023/07/13 00:38:21;;;;;;;9.23;3.63;;;18.90;99.90;;;;;;5020783;28;20030;-42
2023/07/13 00:40:47;;;;;;;3.65;3.25;;;18.90;99.90;;;;;;5020962;28;20805;-41
2023/07/13 00:43:15;;;;;;;5.45;3.63;;;18.80;99.90;;;;;;5017018;28;20034;-39
2023/07/13 00:45:44;;;;;;;6.70;3.97;;;18.90;99.90;;;;;;5024543;28;20030;-41
2023/07/13 00:48:37;;;;;;;5.78;3.67;;;18.90;99.90;;;;;;5018218;28;20045;-41
2023/07/13 00:51:03;;;;;;;4.15;3.63;;;18.90;99.90;;;;;;5016489;28;20049;-39
2023/07/13 00:53:31;;;;;;;4.63;3.92;;;18.90;99.90;;;;;;5023583;28;20022;-41
2023/07/13 00:55:57;;;;;;;5.07;4.25;;;18.90;99.90;;;;;;5023036;28;20046;-40
2023/07/13 00:58:27;;;;;;;11.68;3.92;;;19.00;99.90;;;;;;5027382;28;20126;-41
2023/07/13 01:00:53;;;;;;;7.05;4.15;;;18.90;99.90;;;;;;5023700;28;20507;-35
2023/07/13 01:03:19;;;;;;;8.90;4.55;;;18.90;99.90;;;;;;5023676;28;20022;-33
2023/07/13 01:05:48;;;;;;;7.28;4.25;;;18.90;99.90;;;;;;5028583;28;20029;-33
2023/07/13 01:08:14;;;;;;;7.45;4.60;;;18.80;99.90;;;;;;5023181;28;20080;-33
2023/07/13 01:10:40;;;;;;;5.82;4.30;;;18.70;99.90;;;;;;5023748;28;20538;-33
2023/07/13 01:13:08;;;;;;;8.43;4.63;;;18.70;99.90;;;;;;5027770;28;20946;-34
2023/07/13 01:15:38;;;;;;;;;;;18.70;99.90;;;;;;5021285;28;20038;-37
2023/07/13 01:18:06;;;;;;;5.53;4.53;;;18.70;99.90;;;;;;5025496;28;20378;-33
2023/07/13 01:20:36;;;;;;;5.28;3.85;;;18.70;99.90;;;;;;5025540;28;20033;-37
2023/07/13 01:23:07;;;;;;;6.07;4.20;;;18.80;99.90;;;;;;5022969;28;20049;-36
2023/07/13 01:25:35;;;;;;;6.07;4.57;;;18.70;99.90;;;;;;5024049;28;20040;-33
2023/07/13 01:28:01;;;;;;;7.70;4.68;;;18.70;99.90;;;;;;5026023;28;20855;-34
2023/07/13 01:30:27;;;;;;;6.78;4.95;;;18.70;99.90;;;;;;5019532;28;20026;-34
2023/07/13 01:32:52;;;;;;;5.45;4.85;;;18.70;99.90;;;;;;5026600;28;20025;-37
2023/07/13 01:35:18;;;;;;;6.30;4.50;;;18.70;99.90;;;;;;5020087;28;20088;-35
2023/07/13 01:37:44;;;;;;;6.03;4.75;;;18.80;99.90;;;;;;5026221;28;20093;-34
2023/07/13 01:40:10;;;;;;;5.15;4.38;;;18.80;99.90;;;;;;5025131;28;20032;-37
2023/07/13 01:42:37;;;;;;;6.82;4.93;;;18.80;99.90;;;;;;5024152;28;20072;-34
2023/07/13 01:45:03;;;;;;;5.45;4.40;;;18.80;99.90;;;;;;5018882;28;20499;-33
2023/07/13 01:47:30;;;;;;;6.07;4.70;;;18.80;99.90;;;;;;5025490;28;20025;-33
2023/07/13 01:49:57;;;;;;;6.50;4.65;;;18.80;99.90;;;;;;5021209;28;20033;-33
2023/07/13 01:52:23;;;;;;;7.70;5.57;;;18.80;99.90;;;;;;5026323;28;20013;-37
2023/07/13 01:54:48;;;;;;;8.98;4.72;;;18.80;99.90;;;;;;5026437;28;20040;-33
2023/07/13 01:57:14;;;;;;;6.43;4.93;;;18.80;99.90;;;;;;5021220;28;20048;-32
2023/07/13 01:59:40;;;;;;;8.55;5.95;;;18.70;99.90;;;;;;5023556;28;20175;-32
2023/07/13 02:02:06;;;;;;;8.27;5.60;;;18.70;99.90;;;;;;5022776;28;20037;-34
2023/07/13 02:04:31;;;;;;;9.35;5.60;;;18.60;99.90;;;;;;5021729;28;20123;-35
2023/07/13 02:06:57;;;;;;;7.35;4.95;;;18.60;99.90;;;;;;5027947;28;20026;-34
2023/07/13 02:09:22;;;;;;;7.72;5.60;;;18.60;99.90;;;;;;5019423;28;20092;-37
2023/07/13 02:11:48;;;;;;;7.70;5.30;;;18.60;99.90;;;;;;5026135;28;20518;-33
2023/07/13 02:14:15;;;;;;;8.65;5.00;;;18.60;99.90;;;;;;5019327;28;20061;-33
2023/07/13 02:16:41;;;;;;;8.75;5.30;;;18.70;99.90;;;;;;5020145;28;20021;-31
2023/07/13 02:19:07;;;;;;;8.20;4.85;;;18.70;99.90;;;;;;5027586;28;20029;-32
2023/07/13 02:21:32;;;;;;;6.45;5.10;;;18.70;99.90;;;;;;5022918;28;20378;-31
2023/07/13 02:23:58;;;;;;;10.23;5.47;;;18.70;99.90;;;;;;5022004;28;20029;-32
2023/07/13 02:26:24;;;;;;;9.90;4.80;;;18.70;99.90;;;;;;5027593;28;20091;-31
2023/07/13 02:28:49;;;;;;;6.60;5.00;;;18.70;99.90;;;;;;5023460;28;20042;-32
2023/07/13 02:31:16;;;;;;;7.90;5.45;;;18.70;99.90;;;;;;5020501;28;20438;-33
2023/07/13 02:33:42;;;;;;;6.80;4.82;;;18.70;99.90;;;;;;5023050;28;20030;-31
2023/07/13 02:36:08;;;;;;;7.53;5.00;;;18.70;99.90;;;;;;5024325;28;20029;-34
2023/07/13 02:38:35;;;;;;;7.78;5.03;;;18.70;99.90;;;;;;5022794;28;20368;-33
2023/07/13 02:41:02;;;;;;;6.80;5.00;;;18.70;99.90;;;;;;5022957;28;20480;-32
2023/07/13 02:43:28;;;;;;;6.30;4.63;;;18.70;99.90;;;;;;5022840;28;20032;-31
2023/07/13 02:45:54;;;;;;;7.05;5.32;;;18.70;99.90;;;;;;5022182;28;20756;-33
2023/07/13 02:48:19;;;;;;;6.88;5.25;;;18.70;99.90;;;;;;5022643;28;20382;-31
2023/07/13 02:50:45;;;;;;;6.32;4.72;;;18.70;99.90;;;;;;5022231;28;20391;-34
2023/07/13 02:53:11;;;;;;;6.30;5.32;;;18.60;99.90;;;;;;5027104;28;20045;-31
2023/07/13 02:55:37;;;;;;;5.47;4.68;;;18.60;99.90;;;;;;5021415;28;20030;-32
2023/07/13 02:58:02;;;;;;;7.97;4.65;;;18.60;99.90;;;;;;5020989;28;20857;-31
2023/07/13 03:00:28;;;;;;;6.90;4.35;;;18.60;99.90;;;;;;5023892;28;20041;-32
2023/07/13 03:02:56;;;;;;;5.75;4.38;;;18.50;99.90;;;;;;5020119;28;20427;-32
2023/07/13 03:05:23;;;;;;;6.20;4.38;;;18.50;99.90;;;;;;5022487;28;20041;-31
2023/07/13 03:07:48;;;;;;;7.50;4.82;;;18.50;99.90;;;;;;5021851;28;20030;-32
2023/07/13 03:10:14;;;;;;;5.75;4.57;;;18.50;99.90;;;;;;5020679;28;20557;-33
2023/07/13 03:12:40;;;;;;;6.28;4.28;;;18.60;99.90;;;;;;5025008;28;20087;-31
2023/07/13 03:15:06;;;;;;;6.18;4.10;;;18.50;99.90;;;;;;5021865;28;20029;-31
2023/07/13 03:17:31;;;;;;;6.30;4.40;;;18.50;99.90;;;;;;5016406;28;20021;-33
2023/07/13 03:19:57;;;;;;;6.20;4.03;;;18.40;99.90;;;;;;5005549;28;20022;-33
2023/07/13 03:22:23;;;;;;;5.13;3.55;;;18.50;99.90;;;;;;5021100;28;20040;-34
2023/07/13 03:24:48;;;;;;;3.83;3.45;;;18.50;99.90;;;;;;5023944;28;20072;-32
2023/07/13 03:27:16;;;;;;;4.78;3.50;;;18.50;99.90;;;;;;5023077;28;20026;-33
2023/07/13 03:29:42;;;;;;;4.85;3.70;;;18.50;99.90;;;;;;5022333;28;20112;-35
2023/07/13 03:32:08;;;;;;;4.50;3.53;;;18.40;99.90;;;;;;5016925;28;20133;-33
2023/07/13 03:34:33;;;;;;;6.22;4.10;;;18.30;99.90;;;;;;5021362;28;20549;-34
2023/07/13 03:36:59;;;;;;;6.03;3.50;;;18.30;99.90;;;;;;5021280;28;20025;-34
2023/07/13 03:39:25;;;;;;;4.45;3.13;;;18.20;99.90;;;;;;5025503;28;20033;-34
2023/07/13 03:41:50;;;;;;;6.40;3.53;;;18.10;99.90;;;;;;5020919;28;20037;-34
2023/07/13 03:44:17;;;;;;;4.32;3.05;;;18.20;99.90;;;;;;5021280;28;20797;-34
2023/07/13 03:46:43;;;;;;;5.80;3.63;;;18.30;99.90;;;;;;5024191;28;20079;-34
2023/07/13 03:49:09;;;;;;;5.30;3.60;;;18.20;99.90;;;;;;5017806;28;20042;-32
2023/07/13 03:51:35;;;;;;;4.45;3.10;;;18.00;99.90;;;;;;5019581;28;20030;-33
2023/07/13 03:54:02;;;;;;;5.07;3.58;;;18.10;99.90;;;;;;5021198;28;20022;-34
2023/07/13 03:56:30;;;;;;;4.70;3.33;;;18.10;99.90;;;;;;5018481;28;20030;-34
2023/07/13 03:58:55;;;;;;;4.60;3.38;;;18.10;99.90;;;;;;5024406;28;20391;-32
2023/07/13 04:01:22;;;;;;;4.75;3.20;;;18.20;99.90;;;;;;5018978;28;20049;-35
2023/07/13 04:03:48;;;;;;;6.38;3.38;;;18.20;99.90;;;;;;5018911;28;20048;-35
2023/07/13 04:06:23;;;;;;;5.85;4.03;;;18.20;99.90;;;;;;5024472;28;20022;-33
2023/07/13 04:08:52;;;;;;;5.57;3.45;;;18.20;99.90;;;;;;5019993;28;20514;-34
2023/07/13 04:11:19;;;;;;;4.43;3.45;;;18.20;99.90;;;;;;5024613;28;20025;-33
2023/07/13 04:13:45;;;;;;;6.63;3.53;;;18.10;99.90;;;;;;5022189;28;20021;-33
2023/07/13 04:16:12;;;;;;;3.47;2.92;;;18.10;99.90;;;;;;5001151;28;20041;-34
2023/07/13 04:18:37;;;;;;;5.35;3.42;;;18.10;99.90;;;;;;5017479;28;20037;-33
2023/07/13 04:21:03;;;;;;;5.30;3.15;;;18.10;99.90;;;;;;5019927;28;20379;-36
2023/07/13 04:23:28;;;;;;;5.57;3.28;;;18.00;99.90;;;;;;5018727;28;20033;-33
2023/07/13 04:25:54;;;;;;;6.28;3.47;;;18.00;99.90;;;;;;5023543;28;20387;-37
2023/07/13 04:28:21;;;;;;;3.15;2.60;;;18.00;99.90;;;;;;5021222;28;20501;-33
2023/07/13 04:30:47;;;;;;;3.63;2.85;;;18.00;99.90;;;;;;5016164;28;20026;-33
2023/07/13 04:33:12;;;;;;;3.28;2.97;;;18.00;99.90;;;;;;5023750;28;20025;-34
2023/07/13 04:35:38;;;;;;;5.82;3.38;;;18.00;99.90;;;;;;5021229;28;20502;-34
2023/07/13 04:38:04;;;;;;;4.38;3.10;;;17.90;99.90;;;;;;5001826;28;20520;-32
2023/07/13 04:40:30;;;;;;;4.60;3.30;;;17.90;99.90;;;;;;5022159;28;20045;-31
2023/07/13 04:42:55;;;;;;;6.70;3.40;;;18.00;99.90;;;;;;5021798;28;20487;-34
2023/07/13 04:45:21;;;;;;;4.15;3.28;;;18.00;99.90;;;;;;5023011;28;20036;-34
2023/07/13 04:47:47;;;;;;;10.00;3.25;;;18.00;99.90;;;;;;5022151;28;20033;-32
2023/07/13 04:50:18;;;;;;;4.78;2.92;;;17.90;99.90;;;;;;5022475;28;20020;-32
2023/07/13 04:52:44;;;;;;;4.07;2.47;;;18.00;99.90;;;;;;5024688;28;20026;-28
2023/07/13 04:55:10;;;;;;;5.20;3.13;;;18.00;99.90;;;;;;5023067;28;20033;-32
2023/07/13 04:57:36;;;;;;;5.57;2.80;;;18.00;99.90;;;;;;5017899;28;20018;-30
2023/07/13 05:00:05;;;;;;;5.40;3.00;;;18.00;99.90;;;;;;5022976;28;20037;-31
2023/07/13 05:02:32;;;;;;;6.20;3.30;;;18.10;99.90;;;;;;5017451;28;20578;-34
2023/07/13 05:04:58;;;;;;;4.65;3.40;;;18.10;99.90;;;;;;5016278;28;20489;-34
2023/07/13 05:07:24;;;;;;;5.45;3.70;;;18.10;99.90;;;;;;5020239;28;20088;-31
2023/07/13 05:09:50;;;;;;;3.67;3.13;;;18.10;99.90;;;;;;5017706;28;20022;-31
2023/07/13 05:12:15;;;;;;;6.57;2.92;;;18.10;99.90;;;;;;5019868;28;20030;-31
2023/07/13 05:14:41;;;;;;;6.38;3.22;;;18.10;99.90;;;;;;5002470;28;20120;-31
2023/07/13 05:17:07;;;;;;;5.63;3.00;;;18.10;99.90;;;;;;5013881;28;20030;-35
2023/07/13 05:19:32;;;;;;;4.60;3.13;;;18.20;99.90;;;;;;5024783;28;20558;-32
2023/07/13 05:21:58;;;;;;;6.28;3.13;;;18.20;99.90;;;;;;5025819;28;20105;-31
2023/07/13 05:24:24;;;;;;;4.47;3.35;;;18.30;99.90;;;;;;5020644;28;20026;-31
2023/07/13 05:26:50;;;;;;;6.45;3.47;;;18.30;99.90;;;;;;5022664;28;20047;-30
2023/07/13 05:29:15;;;;;;;6.03;3.30;;;18.30;99.90;;;;;;5019821;28;20073;-31
2023/07/13 05:31:41;;;;;;;6.47;3.30;;;18.40;99.90;;;;;;5017918;28;20033;-32
2023/07/13 05:34:06;;;;;;;4.18;2.92;;;18.40;99.90;;;;;;5022768;28;20566;-30
2023/07/13 05:36:32;;;;;;;6.82;3.45;;;18.40;99.90;;;;;;5019222;28;20018;-33
2023/07/13 05:38:58;;;;;;;6.05;3.20;;;18.40;99.90;;;;;;5025838;28;20128;-32
2023/07/13 05:41:23;;;;;;;5.78;2.83;;;18.40;99.90;;;;;;5022192;28;20076;-31
2023/07/13 05:43:49;;;;;;;4.28;2.70;;;18.40;99.90;;;;;;5023052;28;20087;-31
2023/07/13 05:46:15;;;;;;;6.32;3.28;;;18.40;99.90;;;;;;5024083;28;20021;-31
2023/07/13 05:48:40;;;;;;;4.28;2.80;;;18.40;99.90;;;;;;5027323;28;20029;-30
2023/07/13 05:51:06;;;;;;;6.55;2.97;;;18.30;99.90;;;;;;5024246;28;20033;-31
2023/07/13 05:53:31;;;;;;;3.65;2.58;;;18.30;99.90;;;;;;5023651;28;20040;-32
2023/07/13 05:55:57;;;;;;;6.10;2.47;;;18.30;99.90;;;;;;5024215;28;20057;-31
2023/07/13 05:58:23;;;;;;;3.58;2.40;;;18.30;99.90;;;;;;5024007;28;20076;-34
2023/07/13 06:00:48;;;;;;;2.70;2.38;;;18.30;99.90;;;;;;5022656;28;20050;-30
2023/07/13 06:03:15;;;;;;;2.60;2.10;;;18.20;99.90;;;;;;5020470;28;20025;-31
2023/07/13 06:05:41;;;;;;;2.63;2.35;;;18.20;99.90;;;;;;5025090;28;20056;-31
2023/07/13 06:08:07;;;;;;;2.55;2.08;;;18.30;99.90;;;;;;5004730;28;20065;-31
2023/07/13 06:10:34;;;;;;;3.05;2.20;;;18.20;99.90;;;;;;5022331;28;20036;-34
2023/07/13 06:13:00;;;;;;;2.65;2.42;;;18.30;99.90;;;;;;5023479;28;20552;-31
2023/07/13 06:15:25;;;;;;;3.08;2.13;;;18.30;99.90;;;;;;5022997;28;20034;-32
2023/07/13 06:17:51;;;;;;;2.90;2.10;;;18.30;99.90;;;;;;5018168;28;20427;-31
2023/07/13 06:20:17;;;;;;;2.80;2.22;;;18.40;99.90;;;;;;5023273;28;20039;-30
2023/07/13 06:22:42;;;;;;;2.85;2.03;;;18.20;99.90;;;;;;5025600;28;20056;-31
2023/07/13 06:25:08;;;;;;;5.20;2.55;;;18.20;99.90;;;;;;5027827;28;20048;-33
2023/07/13 06:27:34;;;;;;;4.63;1.80;;;18.20;99.90;;;;;;5022278;28;20029;-31
2023/07/13 06:29:59;;;;;;;4.18;2.30;;;18.20;99.90;;;;;;5019737;28;20038;-31
2023/07/13 06:32:25;;;;;;;5.53;2.45;;;18.20;99.90;;;;;;5024374;28;20037;-31
2023/07/13 06:34:51;;;;;;;4.50;2.22;;;18.20;99.90;;;;;;5021760;28;20080;-33
2023/07/13 06:37:17;;;;;;;3.97;2.20;;;18.20;99.90;;;;;;5021290;28;20024;-30
2023/07/13 06:39:43;;;;;;;3.50;2.17;;;18.10;99.90;;;;;;5025061;28;20025;-33
2023/07/13 06:42:09;;;;;;;4.28;2.33;;;18.00;99.90;;;;;;5024337;28;20037;-30
2023/07/13 06:44:34;;;;;;;2.92;2.55;;;18.10;99.90;;;;;;5020733;28;20026;-31
2023/07/13 06:47:00;;;;;;;3.65;2.70;;;18.00;99.90;;;;;;5024811;28;20048;-31
2023/07/13 06:49:26;;;;;;;4.32;2.45;;;18.10;99.90;;;;;;5023412;28;20079;-30
2023/07/13 06:51:51;;;;;;;4.32;2.50;;;18.10;99.90;;;;;;5022262;28;20030;-32
2023/07/13 06:54:17;;;;;;;3.33;2.53;;;18.10;99.90;;;;;;5024561;28;20026;-32
2023/07/13 06:56:42;;;;;;;3.95;2.25;;;18.20;99.90;;;;;;5022891;28;20025;-31
2023/07/13 06:59:08;;;;;;;4.50;2.30;;;18.30;99.90;;;;;;5022076;28;20029;-32
2023/07/13 07:01:34;;;;;;;3.38;2.20;;;18.30;99.90;;;;;;5005565;28;21028;-31
2023/07/13 07:03:59;;;;;;;4.30;2.00;;;18.40;99.90;;;;;;5020119;28;20045;-31
2023/07/13 07:06:25;;;;;;;2.90;2.33;;;18.50;99.90;;;;;;5025253;28;20057;-31
2023/07/13 07:08:52;;;;;;;2.17;1.98;;;18.60;99.90;;;;;;5020771;28;20026;-30
2023/07/13 07:11:24;;;;;;;4.18;2.42;;;18.60;99.90;;;;;;5020495;28;20143;-30
2023/07/13 07:13:51;;;;;;;3.53;2.08;;;18.60;99.90;;;;;;5024677;28;20073;-30
2023/07/13 07:16:18;;;;;;;4.73;2.20;;;18.70;99.90;;;;;;5003158;28;20026;-30
2023/07/13 07:18:44;;;;;;;3.28;2.10;;;18.90;99.90;;;;;;5024859;28;20045;-32
2023/07/13 07:21:10;;;;;;;2.33;2.00;;;19.00;99.90;;;;;;5022713;28;20037;-31
2023/07/13 07:23:35;;;;;;;4.40;2.20;;;19.00;99.90;;;;;;5025003;28;20033;-37
2023/07/13 07:26:02;;;;;;;4.50;1.85;;;19.10;99.90;;;;;;5023452;28;20561;-30
2023/07/13 07:28:30;;;;;;;3.03;2.05;;;19.30;99.90;;;;;;5022727;28;20033;-30
2023/07/13 07:30:57;;;;;;;3.67;2.00;;;19.40;99.90;;;;;;5022731;28;20436;-31
2023/07/13 07:33:23;;;;;;;2.85;1.80;;;19.40;99.90;;;;;;5019451;28;20548;-30
2023/07/13 07:35:49;;;;;;;1.88;1.73;;;19.50;99.90;;;;;;5024710;28;20030;-30
2023/07/13 07:38:15;;;;;;;5.28;1.80;;;19.60;99.90;;;;;;5019256;28;20033;-30
2023/07/13 07:40:41;;;;;;;6.85;2.10;;;19.80;99.90;;;;;;5023308;28;20033;-31
2023/07/13 07:43:07;;;;;;;3.17;1.95;;;19.80;99.90;;;;;;5020731;28;20038;-32
2023/07/13 07:45:35;;;;;;;4.60;1.90;;;19.60;99.90;;;;;;5024194;28;20029;-31
2023/07/13 07:48:01;;;;;;;1.80;1.70;;;19.70;99.90;;;;;;5020464;28;20510;-31
2023/07/13 07:50:28;;;;;;;3.72;2.00;;;19.80;99.90;;;;;;5017766;28;20064;-31
2023/07/13 07:52:55;;;;;;;4.53;1.95;;;19.90;99.90;;;;;;5022204;28;20633;-31
2023/07/13 07:55:21;;;;;;;2.03;1.80;;;20.10;99.90;;;;;;5023329;28;20084;-32
2023/07/13 07:57:47;;;;;;;3.75;1.70;;;19.90;99.90;;;;;;4999044;28;20030;-30
2023/07/13 08:00:13;;;;;;;3.22;1.75;;;19.70;99.90;;;;;;5023545;28;20049;-31
2023/07/13 08:02:41;;;;;;;1.92;1.60;;;19.60;99.90;;;;;;5017375;28;20030;-31
2023/07/13 08:05:08;;;;;;;3.08;1.80;;;19.60;99.90;;;;;;5023081;28;20018;-33
2023/07/13 08:07:34;;;;;;;2.83;1.55;;;19.50;99.90;;;;;;5020746;28;20064;-34
2023/07/13 08:10:00;;;;;;;3.53;1.70;;;19.60;99.90;;;;;;5018582;28;20045;-33
2023/07/13 08:12:26;;;;;;;2.45;1.90;;;19.80;99.90;;;;;;5020409;28;20029;-33
2023/07/13 08:14:57;;;;;;;2.38;1.65;;;19.90;99.90;;;;;;5016674;28;20034;-33
2023/07/13 08:17:23;;;;;;;2.22;1.75;;;19.90;99.90;;;;;;5020354;28;20076;-33
2023/07/13 08:19:49;;;;;;;1.70;1.58;;;19.90;99.90;;;;;;5020957;28;20113;-32
2023/07/13 08:22:15;;;;;;;2.47;1.80;;;19.90;99.90;;;;;;5021471;28;20462;-37
2023/07/13 08:24:42;;;;;;;4.10;2.00;;;19.90;99.90;;;;;;5022828;28;20511;-35
2023/07/13 08:27:08;;;;;;;4.18;1.40;;;20.00;99.90;;;;;;5018509;28;20030;-33
2023/07/13 08:29:34;;;;;;;2.28;1.77;;;20.20;99.90;;;;;;5021144;28;20073;-33
2023/07/13 08:31:59;;;;;;;2.35;1.73;;;20.40;99.90;;;;;;5017498;28;20059;-33
2023/07/13 08:34:25;;;;;;;2.10;1.90;;;20.60;99.90;;;;;;5019861;28;20033;-32
2023/07/13 08:36:51;;;;;;;1.83;1.58;;;20.80;99.90;;;;;;5019954;28;20026;-33
2023/07/13 08:39:16;;;;;;;2.10;1.88;;;20.80;99.90;;;;;;5020227;28;20021;-33
2023/07/13 08:41:46;;;;;;;2.10;1.67;;;20.90;99.90;;;;;;5019612;28;20083;-36
2023/07/13 08:44:27;;;;;;;1.63;1.50;;;20.80;99.90;;;;;;5017363;28;20029;-39
2023/07/13 08:46:54;;;;;;;2.42;1.55;;;20.70;99.90;;;;;;5017395;28;20045;-35
2023/07/13 08:49:23;;;;;;;2.10;1.90;;;20.60;99.90;;;;;;5013846;28;20044;-34
2023/07/13 08:52:15;;;;;;;3.92;1.80;;;20.70;99.90;;;;;;5016184;28;20072;-33
2023/07/13 08:54:45;;;;;;;2.00;1.77;;;20.60;99.90;;;;;;5000791;28;20141;-34
2023/07/13 08:57:16;;;;;;;3.10;1.83;;;20.70;99.90;;;;;;5018542;28;20026;-34
2023/07/13 08:59:43;;;;;;;4.00;1.73;;;20.80;99.90;;;;;;5019093;28;20049;-32
2023/07/13 09:02:11;;;;;;;2.85;1.70;;;21.20;99.90;;;;;;5017609;28;20044;-33
2023/07/13 09:04:52;;;;;;;4.10;1.70;;;21.30;99.90;;;;;;5017249;28;20080;-33
2023/07/13 09:07:41;;;;;;;2.65;1.70;;;21.20;99.90;;;;;;5021620;28;20103;-34
2023/07/13 09:10:37;;;;;;;4.07;1.88;;;21.20;99.90;;;;;;5017396;28;20383;-33
2023/07/13 09:13:24;;;;;;;3.25;1.75;;;21.20;99.90;;;;;;5018715;28;20504;-33
2023/07/13 09:15:51;;;;;;;3.43;1.70;;;21.20;99.90;;;;;;5021522;28;20487;-33
2023/07/13 09:18:42;;;;;;;5.70;1.95;;;21.20;99.90;;;;;;5024175;28;20043;-32
2023/07/13 09:21:15;;;;;;;5.68;2.13;;;21.30;99.90;;;;;;5007526;28;20045;-32
2023/07/13 09:23:41;;;;;;;1.90;1.80;;;21.50;99.90;;;;;;5019284;28;20033;-34
2023/07/13 09:26:20;;;;;;;3.63;1.80;;;21.60;99.90;;;;;;5023141;28;20036;-38
2023/07/13 09:28:49;;;;;;;2.00;1.70;;;21.70;99.90;;;;;;5012612;28;20111;-33
2023/07/13 09:31:29;;;;;;;2.97;1.77;;;21.60;99.90;;;;;;5019749;28;20440;-33
2023/07/13 09:33:55;;;;;;;2.80;1.52;;;21.40;99.90;;;;;;5022388;28;20033;-33
2023/07/13 09:36:27;;;;;;;3.15;1.83;;;21.40;99.90;;;;;;5002069;28;20025;-33
2023/07/13 09:39:14;;;;;;;2.53;1.60;;;21.50;99.90;;;;;;5025993;28;20136;-34
2023/07/13 09:42:15;;;;;;;2.42;1.65;;;21.70;99.90;;;;;;5023942;28;20450;-33
2023/07/13 09:44:47;;;;;;;2.97;1.63;;;21.70;99.90;;;;;;5018128;28;20033;-33
2023/07/13 09:47:18;;;;;;;3.50;1.73;;;21.90;99.90;;;;;;5022501;28;20069;-33
2023/07/13 09:49:44;;;;;;;1.63;1.40;;;21.60;99.90;;;;;;5020840;28;20436;-32
2023/07/13 09:52:15;;;;;;;2.80;1.70;;;21.60;99.90;;;;;;5022706;28;20022;-32
2023/07/13 09:54:48;;;;;;;2.58;1.58;;;21.60;99.90;;;;;;5022841;28;20030;-37
2023/07/13 09:57:22;;;;;;;2.70;1.20;;;21.50;99.90;;;;;;5023272;28;20017;-33
2023/07/13 09:59:50;;;;;;;4.72;1.92;;;21.30;99.90;;;;;;5022831;28;20037;-33
2023/07/13 10:02:36;;;;;;;2.95;1.42;;;21.50;99.90;;;;;;5021337;28;20044;-34
2023/07/13 10:05:11;;;;;;;2.03;1.50;;;21.80;99.90;;;;;;5008814;28;20037;-34
2023/07/13 10:07:46;;;;;;;1.40;1.30;;;21.90;99.90;;;;;;5022197;28;20026;-33
2023/07/13 10:10:18;;;;;;;2.47;1.40;;;22.00;99.90;;;;;;5024046;28;20022;-33
2023/07/13 10:12:44;;;;;;;3.85;1.70;;;22.10;99.90;;;;;;5023165;28;20033;-35
2023/07/13 10:15:16;;;;;;;3.67;1.70;;;22.50;99.90;;;;;;5022058;28;20041;-32
2023/07/13 10:17:44;;;;;;;3.33;1.70;;;22.40;99.90;;;;;;5023623;28;20022;-33
2023/07/13 10:20:12;;;;;;;3.40;1.63;;;22.40;99.90;;;;;;5020131;28;20029;-33
2023/07/13 10:22:56;;;;;;;;;;;22.40;99.90;;;;;;5023341;28;20096;-37
2023/07/13 10:25:25;;;;;;;4.82;1.67;;;22.10;99.90;;;;;;5019767;28;19913;-42
2023/07/13 10:27:56;;;;;;;3.60;1.80;;;21.70;99.90;;;;;;5023850;28;20021;-40
2023/07/13 10:30:29;;;;;;;2.10;1.60;;;21.60;99.90;;;;;;5018092;28;20495;-38
2023/07/13 10:33:00;;;;;;;2.00;1.77;;;21.90;99.90;;;;;;5020208;28;20502;-40
2023/07/13 10:35:28;;;;;;;3.05;1.60;;;22.00;99.90;;;;;;5019470;28;20026;-40
2023/07/13 10:38:02;;;;;;;3.47;1.80;;;22.00;99.90;;;;;;5019926;28;20037;-41
2023/07/13 10:40:36;;;;;;;2.38;1.52;;;21.90;99.90;;;;;;5024904;28;20124;-41
2023/07/13 10:43:09;;;;;;;4.80;1.52;;;21.90;99.90;;;;;;5020993;28;20132;-40
2023/07/13 10:45:36;;;;;;;3.00;1.30;;;21.70;99.90;;;;;;5019149;28;20022;-41
2023/07/13 10:48:03;;;;;;;4.95;1.83;;;21.70;99.90;;;;;;5021116;28;20026;-41
2023/07/13 10:50:33;;;;;;;2.42;1.42;;;21.70;99.90;;;;;;5015955;28;20022;-41
2023/07/13 10:53:20;;;;;;;2.03;1.63;;;22.00;99.90;;;;;;5023110;28;20449;-40
2023/07/13 10:55:48;;;;;;;2.90;1.48;;;22.60;99.90;;;;;;5022296;28;20098;-41
2023/07/13 10:58:22;;;;;;;1.65;1.52;;;22.80;99.90;;;;;;5022357;28;20476;-41
2023/07/13 11:01:06;;;;;;;3.53;1.88;;;22.80;99.90;;;;;;5020347;28;20103;-41
2023/07/13 11:03:45;;;;;;;2.42;1.20;;;22.90;99.90;;;;;;5019413;28;20029;-41
2023/07/13 11:06:15;;;;;;;2.08;1.65;;;23.30;99.90;;;;;;5023344;28;20079;-42
2023/07/13 11:08:47;;;;;;;1.98;1.55;;;23.60;99.90;;;;;;5022479;28;20022;-41
2023/07/13 11:11:25;;;;;;;3.78;1.77;;;23.50;99.90;;;;;;5023743;28;20492;-40
2023/07/13 11:13:50;;;;;;;1.95;1.60;;;24.00;99.90;;;;;;5020047;28;20132;-41
2023/07/13 11:16:22;;;;;;;4.80;1.70;;;24.20;99.90;;;;;;5022099;28;20382;-41
2023/07/13 11:18:49;;;;;;;4.45;1.88;;;23.90;99.90;;;;;;5014964;28;20026;-41
2023/07/13 11:21:18;;;;;;;4.22;1.65;;;23.90;99.90;;;;;;5024219;28;20029;-41
2023/07/13 11:23:51;;;;;;;2.38;1.60;;;24.10;99.90;;;;;;5018631;28;20479;-41
2023/07/13 11:26:49;;;;;;;3.45;1.83;;;24.40;99.90;;;;;;5022377;28;20152;-40
2023/07/13 11:29:15;;;;;;;1.92;1.40;;;24.40;99.90;;;;;;5022384;28;20033;-35
2023/07/13 11:31:43;;;;;;;2.22;1.70;;;24.10;99.90;;;;;;5015301;28;20034;-42
2023/07/13 11:34:14;;;;;;;5.47;1.80;;;24.10;99.90;;;;;;5017910;28;20017;-41
2023/07/13 11:36:44;;;;;;;4.75;2.70;;;23.80;99.90;;;;;;5022713;28;20075;-33
2023/07/13 11:39:12;;;;;;;2.83;1.80;;;24.00;99.90;;;;;;5020933;28;20026;-34
2023/07/13 11:41:45;;;;;;;2.45;1.70;;;23.50;99.90;;;;;;5021870;28;20665;-34
2023/07/13 11:44:15;;;;;;;4.57;1.90;;;23.60;99.90;;;;;;5024248;28;20083;-34
2023/07/13 11:46:46;;;;;;;1.67;1.50;;;23.80;99.90;;;;;;5016730;28;20388;-32
2023/07/13 11:49:16;;;;;;;2.08;1.80;;;23.40;99.90;;;;;;5018996;28;20391;-33
2023/07/13 11:51:42;;;;;;;3.13;1.90;;;23.60;99.90;;;;;;5022465;28;20035;-34
2023/07/13 11:54:29;;;;;;;3.65;1.90;;;23.60;99.90;;;;;;5020912;28;20031;-34
2023/07/13 11:57:11;;;;;;;2.05;1.65;;;23.80;99.90;;;;;;5019223;28;20033;-33
2023/07/13 11:59:40;;;;;;;4.30;1.75;;;24.00;99.90;;;;;;5018551;28;20124;-34
2023/07/13 12:02:17;;;;;;;3.47;1.63;;;24.30;99.90;;;;;;5019879;28;20065;-35
2023/07/13 12:04:44;;;;;;;1.92;1.50;;;24.30;99.90;;;;;;5014229;28;20095;-33
2023/07/13 12:07:18;;;;;;;1.70;1.60;;;24.60;99.90;;;;;;5021636;28;20030;-33
2023/07/13 12:09:44;;;;;;;3.60;1.75;;;24.80;99.90;;;;;;5021675;28;20033;-34
2023/07/13 12:12:17;;;;;;;1.88;1.40;;;24.70;99.90;;;;;;5019801;28;20079;-32
2023/07/13 12:14:43;;;;;;;2.35;1.83;;;24.70;99.90;;;;;;5022220;28;20033;-33
2023/07/13 12:17:21;;;;;;;1.88;1.30;;;24.70;99.90;;;;;;5021412;28;20091;-35
2023/07/13 12:19:52;;;;;;;3.15;1.95;;;25.00;99.90;;;;;;5017084;28;20124;-32
2023/07/13 12:22:20;;;;;;;4.45;1.80;;;25.50;99.90;;;;;;5016940;28;20025;-35
2023/07/13 12:24:47;;;;;;;2.90;1.50;;;25.30;99.90;;;;;;5022313;28;20071;-34
2023/07/13 12:27:25;;;;;;;1.88;1.48;;;25.40;99.90;;;;;;5018284;28;20442;-33
2023/07/13 12:30:28;;;;;;;1.70;1.60;;;25.20;99.90;;;;;;5020660;28;20141;-35
2023/07/13 12:33:01;;;;;;;3.13;1.67;;;24.90;99.90;;;;;;5016855;28;20045;-33
2023/07/13 12:35:35;;;;;;;1.80;1.60;;;25.00;99.90;;;;;;5018523;28;20026;-33
2023/07/13 12:38:01;;;;;;;2.95;1.40;;;25.10;99.90;;;;;;5021929;28;20038;-33
2023/07/13 12:40:34;;;;;;;2.85;1.38;;;25.20;99.90;;;;;;5019040;28;20108;-36
2023/07/13 12:43:04;;;;;;;2.00;1.45;;;25.20;99.90;;;;;;5023221;28;20537;-34
2023/07/13 12:45:29;;;;;;;3.17;1.70;;;25.70;99.90;;;;;;5015548;28;20028;-35
2023/07/13 12:47:59;;;;;;;2.25;1.50;;;26.00;99.90;;;;;;5022978;28;20026;-32
2023/07/13 12:50:40;;;;;;;2.33;1.50;;;25.70;99.90;;;;;;5016585;28;20108;-32
2023/07/13 12:53:13;;;;;;;3.42;1.60;;;25.20;99.90;;;;;;5023150;28;20021;-32
2023/07/13 12:55:48;;;;;;;3.40;1.63;;;25.00;99.90;;;;;;5020231;28;20129;-31